createdAt,value
2023-04-22T00:00:29.570Z,11.89
2023-04-22T00:01:29.553Z,11.91
2023-04-22T00:02:29.649Z,11.91
2023-04-22T00:03:29.729Z,12.02
2023-04-22T00:04:29.758Z,11.78
2023-04-22T00:05:29.537Z,12.02
2023-04-22T00:06:29.518Z,11.88
2023-04-22T00:07:29.503Z,12.02
2023-04-22T00:08:29.482Z,12.03
2023-04-22T00:09:29.459Z,12.05
2023-04-22T00:10:29.457Z,11.93
2023-04-22T00:11:29.470Z,11.86
2023-04-22T00:12:29.426Z,11.83
2023-04-22T00:13:29.415Z,11.67
2023-04-22T00:14:29.409Z,11.63
2023-04-22T00:15:29.403Z,11.67
2023-04-22T00:16:29.404Z,11.68
2023-04-22T00:17:29.444Z,11.71
2023-04-22T00:18:29.383Z,11.70
2023-04-22T00:19:29.345Z,11.68
2023-04-22T00:20:29.351Z,11.65
2023-04-22T00:21:29.336Z,11.55
2023-04-22T00:22:29.321Z,11.41
2023-04-22T00:23:29.300Z,11.52
2023-04-22T00:24:29.301Z,11.41
2023-04-22T00:25:29.273Z,11.51
2023-04-22T00:26:29.286Z,11.55
2023-04-22T00:27:29.267Z,11.44
2023-04-22T00:28:29.250Z,11.45
2023-04-22T00:29:29.229Z,11.31
2023-04-22T00:30:29.222Z,11.07
2023-04-22T00:31:29.235Z,11.23
2023-04-22T00:32:29.198Z,11.26
2023-04-22T00:33:29.183Z,11.20
2023-04-22T00:34:29.173Z,11.20
2023-04-22T00:35:29.169Z,11.19
2023-04-22T00:36:29.161Z,11.18
2023-04-22T00:37:29.159Z,11.10
2023-04-22T00:38:29.122Z,11.20
2023-04-22T00:39:29.111Z,11.12
2023-04-22T00:40:29.101Z,11.10
2023-04-22T00:41:30.108Z,11.05
2023-04-22T00:42:29.081Z,11.01
2023-04-22T00:43:29.074Z,10.86
2023-04-22T00:44:29.068Z,10.84
2023-04-22T00:45:29.059Z,10.77
2023-04-22T00:46:29.080Z,10.83
2023-04-22T00:47:29.060Z,10.79
2023-04-22T00:48:30.013Z,10.69
2023-04-22T00:49:29.018Z,10.59
2023-04-22T00:50:29.021Z,10.67
2023-04-22T00:51:28.999Z,10.79
2023-04-22T00:52:28.987Z,10.76
2023-04-22T00:53:28.977Z,10.76
2023-04-22T00:54:28.972Z,10.76
2023-04-22T00:55:28.951Z,10.65
2023-04-22T00:56:28.921Z,10.65
2023-04-22T00:57:28.935Z,10.58
2023-04-22T00:58:28.930Z,10.45
2023-04-22T00:59:28.887Z,10.59
2023-04-22T01:00:28.954Z,10.62
2023-04-22T01:01:28.923Z,10.61
2023-04-22T01:02:28.957Z,10.58
2023-04-22T01:03:28.977Z,10.59
2023-04-22T01:04:28.880Z,10.59
2023-04-22T01:05:28.842Z,10.58
2023-04-22T01:06:28.825Z,10.51
2023-04-22T01:07:28.809Z,10.55
2023-04-22T01:08:28.811Z,10.59
2023-04-22T01:09:28.831Z,10.53
2023-04-22T01:10:28.773Z,10.57
2023-04-22T01:11:28.770Z,10.55
2023-04-22T01:12:28.764Z,10.62
2023-04-22T01:13:28.733Z,10.62
2023-04-22T01:14:28.747Z,10.62
2023-04-22T01:15:28.809Z,10.68
2023-04-22T01:16:28.745Z,10.65
2023-04-22T01:17:28.701Z,10.72
2023-04-22T01:18:28.690Z,10.80
2023-04-22T01:19:28.679Z,10.71
2023-04-22T01:20:28.670Z,10.67
2023-04-22T01:21:28.687Z,10.72
2023-04-22T01:22:28.645Z,10.80
2023-04-22T01:23:28.636Z,10.75
2023-04-22T01:24:28.654Z,10.77
2023-04-22T01:25:28.612Z,10.68
2023-04-22T01:26:28.592Z,10.76
2023-04-22T01:27:28.592Z,10.77
2023-04-22T01:28:28.595Z,10.72
2023-04-22T01:29:28.586Z,10.77
2023-04-22T01:30:28.578Z,10.77
2023-04-22T01:31:28.591Z,10.69
2023-04-22T01:32:28.682Z,10.61
2023-04-22T01:33:28.550Z,10.62
2023-04-22T01:34:28.535Z,10.68
2023-04-22T01:35:28.521Z,10.76
2023-04-22T01:36:28.493Z,10.67
2023-04-22T01:37:28.492Z,10.77
2023-04-22T01:38:28.461Z,10.72
2023-04-22T01:39:28.469Z,10.80
2023-04-22T01:40:28.455Z,10.62
2023-04-22T01:41:28.454Z,10.65
2023-04-22T01:42:28.440Z,10.62
2023-04-22T01:43:28.412Z,10.65
2023-04-22T01:44:28.410Z,10.55
2023-04-22T01:45:28.389Z,10.57
2023-04-22T01:46:28.521Z,10.42
2023-04-22T01:47:28.378Z,10.46
2023-04-22T01:48:28.377Z,10.46
2023-04-22T01:49:28.343Z,10.48
2023-04-22T01:50:28.326Z,10.55
2023-04-22T01:51:28.347Z,10.64
2023-04-22T01:52:28.303Z,10.45
2023-04-22T01:53:28.297Z,10.43
2023-04-22T01:54:28.299Z,10.43
2023-04-22T01:55:28.276Z,10.42
2023-04-22T01:56:28.273Z,10.36
2023-04-22T01:57:28.258Z,10.20
2023-04-22T01:58:28.240Z,10.24
2023-04-22T01:59:28.224Z,10.24
2023-04-22T02:00:28.224Z,10.25
2023-04-22T02:01:28.233Z,10.36
2023-04-22T02:02:28.280Z,10.31
2023-04-22T02:03:28.212Z,10.43
2023-04-22T02:04:28.203Z,10.57
2023-04-22T02:05:28.172Z,10.75
2023-04-22T02:06:28.175Z,10.87
2023-04-22T02:07:28.148Z,10.97
2023-04-22T02:08:28.121Z,11.00
2023-04-22T02:09:28.123Z,11.08
2023-04-22T02:10:28.103Z,11.05
2023-04-22T02:11:28.095Z,11.05
2023-04-22T02:12:28.091Z,11.02
2023-04-22T02:13:28.081Z,10.98
2023-04-22T02:14:28.051Z,11.07
2023-04-22T02:15:28.067Z,10.83
2023-04-22T02:16:28.110Z,10.87
2023-04-22T02:17:28.028Z,10.90
2023-04-22T02:18:28.023Z,10.87
2023-04-22T02:19:28.038Z,10.90
2023-04-22T02:20:27.987Z,10.92
2023-04-22T02:21:27.992Z,10.89
2023-04-22T02:22:27.966Z,10.90
2023-04-22T02:23:27.961Z,10.89
2023-04-22T02:24:27.945Z,10.89
2023-04-22T02:25:27.942Z,10.92
2023-04-22T02:26:27.937Z,10.90
2023-04-22T02:27:27.908Z,10.89
2023-04-22T02:28:27.920Z,11.00
2023-04-22T02:29:27.884Z,10.92
2023-04-22T02:30:27.883Z,11.01
2023-04-22T02:31:27.898Z,10.92
2023-04-22T02:32:27.898Z,10.95
2023-04-22T02:33:27.844Z,10.92
2023-04-22T02:34:27.822Z,10.86
2023-04-22T02:35:28.808Z,11.02
2023-04-22T02:36:27.814Z,11.01
2023-04-22T02:37:27.793Z,11.15
2023-04-22T02:38:27.799Z,11.12
2023-04-22T02:39:27.782Z,11.25
2023-04-22T02:40:27.755Z,11.08
2023-04-22T02:41:27.745Z,10.98
2023-04-22T02:42:27.743Z,10.97
2023-04-22T02:43:27.741Z,11.05
2023-04-22T02:44:27.709Z,11.10
2023-04-22T02:45:27.710Z,11.08
2023-04-22T02:46:27.836Z,11.08
2023-04-22T02:47:27.697Z,11.05
2023-04-22T02:48:27.670Z,11.00
2023-04-22T02:49:27.680Z,10.94
2023-04-22T02:50:27.646Z,10.98
2023-04-22T02:51:27.635Z,10.83
2023-04-22T02:52:27.636Z,10.79
2023-04-22T02:53:27.610Z,10.67
2023-04-22T02:54:27.603Z,10.72
2023-04-22T02:55:27.576Z,10.67
2023-04-22T02:56:27.580Z,10.65
2023-04-22T02:57:27.584Z,10.69
2023-04-22T02:58:27.562Z,10.75
2023-04-22T02:59:27.545Z,10.71
2023-04-22T03:00:27.532Z,10.65
2023-04-22T03:01:27.578Z,10.62
2023-04-22T03:02:27.613Z,10.64
2023-04-22T03:03:27.766Z,10.67
2023-04-22T03:04:27.693Z,10.62
2023-04-22T03:05:27.495Z,10.59
2023-04-22T03:06:27.474Z,10.48
2023-04-22T03:07:27.468Z,10.55
2023-04-22T03:08:27.441Z,10.58
2023-04-22T03:09:28.473Z,10.51
2023-04-22T03:10:27.443Z,10.55
2023-04-22T03:11:27.422Z,10.62
2023-04-22T03:12:27.431Z,10.58
2023-04-22T03:13:27.389Z,10.48
2023-04-22T03:14:27.380Z,10.57
2023-04-22T03:15:27.400Z,10.57
2023-04-22T03:16:27.394Z,10.49
2023-04-22T03:17:27.352Z,10.57
2023-04-22T03:18:27.354Z,10.58
2023-04-22T03:19:27.353Z,10.58
2023-04-22T03:20:27.334Z,10.58
2023-04-22T03:21:27.328Z,10.51
2023-04-22T03:22:27.303Z,10.53
2023-04-22T03:23:27.300Z,10.58
2023-04-22T03:24:27.310Z,10.53
2023-04-22T03:25:27.285Z,10.57
2023-04-22T03:26:27.261Z,10.65
2023-04-22T03:27:27.259Z,10.58
2023-04-22T03:28:27.249Z,10.65
2023-04-22T03:29:27.231Z,10.69
2023-04-22T03:30:27.232Z,10.58
2023-04-22T03:31:27.222Z,10.57
2023-04-22T03:32:27.207Z,10.53
2023-04-22T03:33:27.210Z,10.55
2023-04-22T03:34:27.200Z,10.61
2023-04-22T03:35:27.184Z,10.57
2023-04-22T03:36:27.161Z,10.49
2023-04-22T03:37:27.143Z,10.65
2023-04-22T03:38:27.141Z,10.58
2023-04-22T03:39:27.144Z,10.67
2023-04-22T03:40:27.127Z,10.71
2023-04-22T03:41:27.095Z,10.68
2023-04-22T03:42:27.101Z,10.55
2023-04-22T03:43:27.077Z,10.46
2023-04-22T03:44:28.060Z,10.53
2023-04-22T03:45:27.073Z,10.61
2023-04-22T03:46:27.244Z,10.64
2023-04-22T03:47:27.133Z,10.71
2023-04-22T03:48:27.030Z,10.75
2023-04-22T03:49:27.005Z,10.72
2023-04-22T03:50:27.018Z,10.65
2023-04-22T03:51:26.999Z,10.62
2023-04-22T03:52:26.979Z,10.65
2023-04-22T03:53:26.963Z,10.69
2023-04-22T03:54:26.969Z,10.65
2023-04-22T03:55:26.978Z,10.64
2023-04-22T03:56:26.955Z,10.61
2023-04-22T03:57:26.921Z,10.62
2023-04-22T03:58:26.912Z,10.64
2023-04-22T03:59:26.897Z,10.76
2023-04-22T04:00:26.902Z,10.72
2023-04-22T04:01:26.886Z,10.65
2023-04-22T04:02:27.067Z,10.76
2023-04-22T04:03:28.793Z,10.80
2023-04-22T04:04:26.983Z,10.86
2023-04-22T04:05:27.075Z,10.83
2023-04-22T04:06:26.811Z,10.84
2023-04-22T04:07:26.816Z,10.83
2023-04-22T04:08:26.817Z,10.86
2023-04-22T04:09:26.791Z,10.90
2023-04-22T04:10:26.798Z,10.79
2023-04-22T04:11:26.764Z,10.76
2023-04-22T04:12:26.746Z,10.79
2023-04-22T04:13:26.730Z,10.86
2023-04-22T04:14:26.731Z,10.84
2023-04-22T04:15:26.740Z,10.94
2023-04-22T04:16:26.810Z,10.87
2023-04-22T04:17:26.745Z,10.87
2023-04-22T04:18:26.684Z,10.95
2023-04-22T04:19:26.676Z,10.86
2023-04-22T04:20:26.669Z,10.97
2023-04-22T04:21:26.668Z,10.90
2023-04-22T04:22:26.636Z,10.90
2023-04-22T04:23:26.620Z,10.92
2023-04-22T04:24:26.620Z,10.83
2023-04-22T04:25:26.622Z,10.80
2023-04-22T04:26:26.585Z,10.87
2023-04-22T04:27:26.577Z,10.82
2023-04-22T04:28:26.593Z,10.83
2023-04-22T04:29:26.556Z,10.83
2023-04-22T04:30:26.552Z,10.95
2023-04-22T04:31:26.609Z,10.89
2023-04-22T04:32:26.568Z,10.86
2023-04-22T04:33:26.509Z,10.90
2023-04-22T04:34:26.509Z,10.86
2023-04-22T04:35:26.494Z,10.90
2023-04-22T04:36:26.474Z,10.84
2023-04-22T04:37:26.480Z,10.87
2023-04-22T04:38:26.454Z,10.77
2023-04-22T04:39:27.457Z,10.83
2023-04-22T04:40:26.457Z,10.80
2023-04-22T04:41:26.428Z,10.77
2023-04-22T04:42:26.409Z,10.80
2023-04-22T04:43:26.424Z,10.80
2023-04-22T04:44:26.405Z,10.71
2023-04-22T04:45:26.435Z,10.75
2023-04-22T04:46:26.398Z,10.72
2023-04-22T04:47:26.368Z,10.72
2023-04-22T04:48:26.358Z,10.79
2023-04-22T04:49:26.327Z,10.82
2023-04-22T04:50:26.332Z,10.72
2023-04-22T04:51:26.330Z,10.84
2023-04-22T04:52:26.294Z,10.82
2023-04-22T04:53:26.283Z,10.94
2023-04-22T04:54:26.298Z,10.84
2023-04-22T04:55:26.263Z,10.90
2023-04-22T04:56:26.247Z,11.02
2023-04-22T04:57:26.234Z,10.82
2023-04-22T04:58:26.231Z,10.87
2023-04-22T04:59:26.239Z,10.87
2023-04-22T05:00:26.207Z,11.02
2023-04-22T05:01:26.227Z,11.08
2023-04-22T05:02:26.437Z,11.01
2023-04-22T05:03:26.339Z,11.07
2023-04-22T05:04:26.345Z,11.16
2023-04-22T05:05:26.155Z,11.18
2023-04-22T05:06:26.272Z,11.26
2023-04-22T05:07:26.117Z,11.33
2023-04-22T05:08:27.124Z,11.34
2023-04-22T05:09:26.109Z,11.37
2023-04-22T05:10:26.101Z,11.44
2023-04-22T05:11:26.104Z,11.43
2023-04-22T05:12:26.084Z,11.48
2023-04-22T05:13:26.063Z,11.53
2023-04-22T05:14:26.055Z,11.60
2023-04-22T05:15:26.051Z,11.68
2023-04-22T05:16:26.108Z,11.76
2023-04-22T05:17:26.036Z,11.74
2023-04-22T05:18:26.023Z,11.93
2023-04-22T05:19:25.988Z,11.96
2023-04-22T05:20:25.972Z,11.97
2023-04-22T05:21:25.965Z,12.07
2023-04-22T05:22:25.969Z,12.05
2023-04-22T05:23:25.946Z,12.17
2023-04-22T05:24:25.942Z,12.26
2023-04-22T05:25:25.928Z,12.36
2023-04-22T05:26:25.925Z,12.43
2023-04-22T05:27:25.919Z,12.53
2023-04-22T05:28:25.884Z,12.45
2023-04-22T05:29:25.873Z,12.61
2023-04-22T05:30:25.866Z,12.68
2023-04-22T05:31:25.916Z,12.72
2023-04-22T05:32:26.000Z,12.84
2023-04-22T05:33:25.823Z,12.99
2023-04-22T05:34:25.825Z,12.98
2023-04-22T05:35:25.826Z,13.03
2023-04-22T05:36:25.806Z,13.06
2023-04-22T05:37:25.803Z,13.33
2023-04-22T05:38:25.781Z,13.36
2023-04-22T05:39:25.753Z,13.50
2023-04-22T05:40:25.766Z,13.52
2023-04-22T05:41:25.746Z,13.58
2023-04-22T05:42:25.734Z,13.70
2023-04-22T05:43:25.725Z,13.64
2023-04-22T05:44:25.724Z,13.70
2023-04-22T05:45:25.700Z,13.79
2023-04-22T05:46:25.744Z,13.80
2023-04-22T05:47:25.731Z,13.80
2023-04-22T05:48:25.664Z,13.85
2023-04-22T05:49:25.652Z,13.93
2023-04-22T05:50:25.645Z,13.91
2023-04-22T05:51:25.622Z,14.08
2023-04-22T05:52:25.633Z,14.16
2023-04-22T05:53:25.603Z,14.22
2023-04-22T05:54:25.592Z,14.36
2023-04-22T05:55:25.564Z,14.37
2023-04-22T05:56:25.600Z,14.45
2023-04-22T05:57:25.577Z,14.43
2023-04-22T05:58:25.534Z,14.58
2023-04-22T05:59:25.517Z,14.67
2023-04-22T06:00:25.528Z,14.56
2023-04-22T06:01:25.531Z,14.58
2023-04-22T06:02:25.595Z,14.67
2023-04-22T06:03:25.596Z,14.79
2023-04-22T06:04:26.746Z,14.81
2023-04-22T06:05:25.564Z,14.93
2023-04-22T06:06:25.471Z,14.94
2023-04-22T06:07:25.459Z,14.97
2023-04-22T06:08:25.457Z,15.00
2023-04-22T06:09:25.444Z,15.12
2023-04-22T06:10:25.420Z,15.19
2023-04-22T06:11:25.422Z,15.18
2023-04-22T06:12:25.414Z,15.33
2023-04-22T06:13:25.388Z,15.35
2023-04-22T06:14:25.373Z,15.35
2023-04-22T06:15:25.372Z,15.44
2023-04-22T06:16:25.346Z,15.54
2023-04-22T06:17:25.381Z,15.65
2023-04-22T06:18:26.535Z,15.65
2023-04-22T06:19:25.318Z,15.59
2023-04-22T06:20:25.306Z,15.63
2023-04-22T06:21:25.319Z,15.70
2023-04-22T06:22:25.277Z,15.62
2023-04-22T06:23:25.274Z,15.66
2023-04-22T06:24:25.280Z,15.73
2023-04-22T06:25:25.246Z,15.76
2023-04-22T06:26:25.238Z,15.80
2023-04-22T06:27:25.238Z,15.83
2023-04-22T06:28:25.219Z,15.85
2023-04-22T06:29:25.198Z,15.94
2023-04-22T06:30:25.198Z,15.99
2023-04-22T06:31:25.215Z,16.05
2023-04-22T06:32:25.168Z,16.10
2023-04-22T06:33:25.164Z,16.16
2023-04-22T06:34:25.155Z,16.37
2023-04-22T06:35:25.133Z,16.34
2023-04-22T06:36:25.123Z,16.44
2023-04-22T06:37:25.115Z,16.54
2023-04-22T06:38:25.114Z,16.59
2023-04-22T06:39:25.105Z,16.57
2023-04-22T06:40:25.092Z,16.58
2023-04-22T06:41:25.087Z,16.79
2023-04-22T06:42:25.058Z,16.69
2023-04-22T06:43:25.077Z,16.72
2023-04-22T06:44:25.041Z,16.76
2023-04-22T06:45:25.044Z,16.79
2023-04-22T06:46:25.050Z,16.76
2023-04-22T06:47:25.026Z,16.92
2023-04-22T06:48:25.007Z,16.98
2023-04-22T06:49:24.996Z,16.97
2023-04-22T06:50:24.991Z,16.95
2023-04-22T06:51:24.976Z,17.09
2023-04-22T06:52:24.953Z,17.05
2023-04-22T06:53:24.954Z,17.07
2023-04-22T06:54:24.928Z,17.09
2023-04-22T06:55:24.933Z,17.19
2023-04-22T06:56:24.939Z,17.30
2023-04-22T06:57:24.905Z,17.22
2023-04-22T06:58:24.891Z,17.32
2023-04-22T06:59:24.888Z,17.39
2023-04-22T07:00:24.881Z,17.32
2023-04-22T07:01:24.882Z,17.41
2023-04-22T07:02:24.949Z,17.37
2023-04-22T07:03:25.010Z,17.46
2023-04-22T07:04:24.885Z,17.53
2023-04-22T07:05:24.828Z,17.65
2023-04-22T07:06:24.801Z,17.69
2023-04-22T07:07:24.784Z,17.59
2023-04-22T07:08:24.773Z,17.69
2023-04-22T07:09:24.795Z,17.75
2023-04-22T07:10:24.784Z,17.69
2023-04-22T07:11:24.728Z,17.73
2023-04-22T07:12:24.734Z,17.80
2023-04-22T07:13:24.711Z,17.80
2023-04-22T07:14:24.721Z,17.72
2023-04-22T07:15:24.724Z,17.78
2023-04-22T07:16:24.739Z,17.84
2023-04-22T07:17:24.730Z,17.76
2023-04-22T07:18:24.689Z,17.71
2023-04-22T07:19:24.646Z,17.79
2023-04-22T07:20:24.674Z,17.90
2023-04-22T07:21:24.750Z,18.06
2023-04-22T07:22:24.608Z,17.93
2023-04-22T07:23:24.628Z,18.15
2023-04-22T07:24:24.606Z,18.13
2023-04-22T07:25:24.607Z,18.18
2023-04-22T07:26:24.587Z,18.41
2023-04-22T07:27:24.570Z,18.43
2023-04-22T07:28:24.579Z,18.51
2023-04-22T07:29:24.616Z,18.51
2023-04-22T07:30:24.545Z,18.58
2023-04-22T07:31:24.556Z,18.61
2023-04-22T07:32:24.550Z,18.76
2023-04-22T07:33:24.511Z,18.73
2023-04-22T07:34:24.495Z,18.85
2023-04-22T07:35:24.514Z,18.76
2023-04-22T07:36:24.469Z,18.89
2023-04-22T07:37:24.466Z,18.82
2023-04-22T07:38:24.472Z,18.91
2023-04-22T07:39:24.448Z,18.96
2023-04-22T07:40:24.504Z,18.97
2023-04-22T07:41:24.426Z,19.07
2023-04-22T07:42:24.392Z,19.11
2023-04-22T07:43:24.406Z,19.08
2023-04-22T07:44:24.413Z,19.08
2023-04-22T07:45:24.384Z,19.09
2023-04-22T07:46:24.417Z,19.20
2023-04-22T07:47:24.398Z,19.37
2023-04-22T07:48:24.348Z,19.35
2023-04-22T07:49:24.327Z,19.47
2023-04-22T07:50:24.348Z,19.57
2023-04-22T07:51:24.310Z,19.64
2023-04-22T07:52:24.320Z,19.44
2023-04-22T07:53:24.297Z,19.52
2023-04-22T07:54:24.286Z,19.52
2023-04-22T07:55:24.261Z,19.81
2023-04-22T07:56:24.256Z,19.85
2023-04-22T07:57:24.265Z,19.87
2023-04-22T07:58:24.224Z,19.90
2023-04-22T07:59:24.222Z,20.03
2023-04-22T08:00:24.296Z,20.12
2023-04-22T08:01:24.210Z,20.26
2023-04-22T08:02:24.306Z,20.27
2023-04-22T08:03:24.400Z,20.34
2023-04-22T08:04:24.403Z,20.29
2023-04-22T08:05:24.206Z,20.46
2023-04-22T08:06:24.210Z,20.36
2023-04-22T08:07:32.455Z,20.53
2023-04-22T08:08:26.123Z,20.64
2023-04-22T08:09:24.119Z,20.86
2023-04-22T08:10:24.133Z,20.98
2023-04-22T08:11:24.101Z,21.14
2023-04-22T08:12:24.093Z,21.37
2023-04-22T08:13:24.079Z,21.41
2023-04-22T08:14:24.078Z,21.32
2023-04-22T08:15:24.055Z,21.41
2023-04-22T08:16:24.124Z,21.51
2023-04-22T08:17:24.065Z,21.51
2023-04-22T08:18:24.009Z,21.68
2023-04-22T08:19:24.029Z,21.62
2023-04-22T08:20:24.004Z,21.59
2023-04-22T08:21:23.999Z,21.62
2023-04-22T08:22:24.989Z,21.77
2023-04-22T08:23:23.963Z,21.92
2023-04-22T08:24:23.981Z,22.04
2023-04-22T08:25:23.935Z,22.07
2023-04-22T08:26:23.947Z,22.10
2023-04-22T08:27:23.939Z,22.41
2023-04-22T08:28:23.918Z,22.44
2023-04-22T08:29:23.896Z,22.51
2023-04-22T08:30:23.922Z,22.49
2023-04-22T08:31:23.909Z,22.46
2023-04-22T08:32:23.946Z,22.44
2023-04-22T08:33:26.566Z,22.53
2023-04-22T08:34:23.844Z,22.52
2023-04-22T08:35:23.845Z,22.41
2023-04-22T08:36:23.841Z,22.38
2023-04-22T08:37:23.835Z,22.36
2023-04-22T08:38:23.809Z,22.28
2023-04-22T08:39:23.825Z,22.10
2023-04-22T08:40:24.801Z,21.84
2023-04-22T08:41:23.783Z,21.70
2023-04-22T08:42:23.779Z,21.60
2023-04-22T08:43:23.750Z,21.72
2023-04-22T08:44:23.738Z,21.62
2023-04-22T08:45:23.752Z,21.59
2023-04-22T08:46:23.745Z,21.26
2023-04-22T08:47:23.745Z,21.13
2023-04-22T08:48:23.705Z,20.96
2023-04-22T08:49:23.690Z,21.11
2023-04-22T08:50:23.768Z,21.10
2023-04-22T08:51:23.688Z,21.00
2023-04-22T08:52:23.657Z,21.04
2023-04-22T08:53:24.880Z,21.20
2023-04-22T08:54:24.661Z,21.22
2023-04-22T08:55:23.622Z,21.07
2023-04-22T08:56:23.624Z,21.28
2023-04-22T08:57:23.605Z,21.62
2023-04-22T08:58:23.581Z,21.69
2023-04-22T08:59:23.612Z,22.00
2023-04-22T09:00:23.574Z,22.04
2023-04-22T09:01:23.584Z,22.07
2023-04-22T09:02:23.597Z,22.19
2023-04-22T09:03:23.630Z,22.47
2023-04-22T09:04:23.685Z,22.61
2023-04-22T09:05:23.873Z,22.86
2023-04-22T09:06:23.501Z,22.83
2023-04-22T09:07:23.517Z,22.84
2023-04-22T09:08:23.477Z,22.92
2023-04-22T09:09:23.490Z,22.95
2023-04-22T09:10:23.476Z,22.96
2023-04-22T09:11:23.465Z,23.07
2023-04-22T09:12:23.453Z,23.29
2023-04-22T09:13:23.442Z,23.42
2023-04-22T09:14:23.429Z,23.55
2023-04-22T09:15:23.419Z,23.66
2023-04-22T09:16:23.425Z,23.77
2023-04-22T09:17:23.393Z,23.76
2023-04-22T09:18:23.389Z,23.84
2023-04-22T09:19:23.401Z,23.79
2023-04-22T09:20:23.345Z,23.77
2023-04-22T09:21:23.343Z,23.79
2023-04-22T09:22:23.341Z,23.76
2023-04-22T09:23:23.319Z,23.86
2023-04-22T09:24:23.307Z,23.76
2023-04-22T09:25:24.308Z,23.71
2023-04-22T09:26:23.308Z,23.74
2023-04-22T09:27:23.292Z,23.73
2023-04-22T09:28:23.303Z,23.66
2023-04-22T09:29:23.268Z,23.39
2023-04-22T09:30:23.275Z,23.26
2023-04-22T09:31:23.274Z,23.36
2023-04-22T09:32:23.293Z,23.40
2023-04-22T09:33:23.208Z,23.33
2023-04-22T09:34:23.229Z,23.44
2023-04-22T09:35:23.200Z,23.42
2023-04-22T09:36:23.181Z,23.14
2023-04-22T09:37:23.217Z,23.08
2023-04-22T09:38:23.162Z,23.02
2023-04-22T09:39:23.178Z,22.91
2023-04-22T09:40:23.166Z,22.95
2023-04-22T09:41:23.132Z,23.14
2023-04-22T09:42:23.127Z,23.34
2023-04-22T09:43:23.142Z,23.59
2023-04-22T09:44:23.099Z,23.73
2023-04-22T09:45:23.102Z,23.96
2023-04-22T09:46:23.320Z,24.28
2023-04-22T09:47:23.097Z,24.36
2023-04-22T09:48:23.081Z,24.41
2023-04-22T09:49:23.067Z,24.44
2023-04-22T09:50:23.045Z,24.78
2023-04-22T09:51:23.037Z,24.85
2023-04-22T09:52:23.055Z,24.86
2023-04-22T09:53:23.002Z,24.96
2023-04-22T09:54:22.999Z,25.11
2023-04-22T09:55:23.009Z,25.19
2023-04-22T09:56:22.987Z,25.18
2023-04-22T09:57:22.973Z,25.26
2023-04-22T09:58:24.099Z,25.34
2023-04-22T09:59:22.971Z,25.37
2023-04-22T10:00:22.928Z,25.18
2023-04-22T10:01:22.952Z,25.14
2023-04-22T10:02:22.955Z,25.03
2023-04-22T10:03:22.924Z,24.48
2023-04-22T10:04:22.921Z,24.34
2023-04-22T10:05:22.904Z,24.48
2023-04-22T10:06:22.878Z,24.46
2023-04-22T10:07:22.866Z,24.40
2023-04-22T10:08:22.883Z,24.46
2023-04-22T10:09:22.847Z,24.61
2023-04-22T10:10:22.855Z,24.34
2023-04-22T10:11:22.846Z,24.41
2023-04-22T10:12:29.547Z,24.32
2023-04-22T10:13:24.826Z,24.19
2023-04-22T10:14:23.159Z,24.26
2023-04-22T10:15:24.897Z,24.41
2023-04-22T10:16:22.787Z,24.26
2023-04-22T10:17:22.778Z,24.41
2023-04-22T10:18:22.822Z,24.59
2023-04-22T10:19:22.760Z,24.68
2023-04-22T10:20:22.746Z,25.00
2023-04-22T10:21:23.801Z,25.07
2023-04-22T10:22:22.728Z,25.18
2023-04-22T10:23:22.730Z,24.82
2023-04-22T10:24:22.727Z,25.04
2023-04-22T10:25:22.714Z,24.77
2023-04-22T10:26:22.673Z,24.34
2023-04-22T10:27:22.680Z,23.71
2023-04-22T10:28:22.715Z,23.48
2023-04-22T10:29:22.664Z,23.28
2023-04-22T10:30:22.626Z,23.37
2023-04-22T10:31:22.681Z,23.70
2023-04-22T10:32:22.641Z,23.73
2023-04-22T10:33:22.610Z,23.91
2023-04-22T10:34:22.633Z,24.40
2023-04-22T10:35:22.585Z,24.66
2023-04-22T10:36:22.560Z,24.84
2023-04-22T10:37:22.579Z,25.11
2023-04-22T10:38:22.559Z,25.12
2023-04-22T10:39:22.562Z,25.31
2023-04-22T10:40:22.598Z,25.41
2023-04-22T10:41:22.520Z,25.39
2023-04-22T10:42:22.507Z,25.33
2023-04-22T10:43:22.497Z,24.59
2023-04-22T10:44:22.520Z,24.19
2023-04-22T10:45:23.487Z,24.26
2023-04-22T10:46:22.523Z,24.38
2023-04-22T10:47:22.499Z,24.44
2023-04-22T10:48:22.455Z,24.53
2023-04-22T10:49:22.457Z,24.86
2023-04-22T10:50:22.424Z,24.97
2023-04-22T10:51:22.412Z,25.18
2023-04-22T10:52:22.399Z,25.03
2023-04-22T10:53:54.356Z,25.04
2023-04-22T10:54:22.436Z,25.06
2023-04-22T10:55:22.426Z,25.30
2023-04-22T10:56:22.388Z,25.43
2023-04-22T10:57:22.349Z,25.31
2023-04-22T10:58:22.336Z,24.09
2023-04-22T10:59:22.376Z,24.22
2023-04-22T11:00:22.348Z,24.26
2023-04-22T11:01:22.385Z,24.32
2023-04-22T11:02:22.354Z,24.36
2023-04-22T11:03:22.559Z,24.66
2023-04-22T11:04:22.491Z,24.96
2023-04-22T11:05:24.561Z,25.31
2023-04-22T11:06:22.366Z,25.55
2023-04-22T11:07:22.270Z,25.78
2023-04-22T11:08:22.278Z,25.81
2023-04-22T11:09:22.251Z,25.89
2023-04-22T11:10:22.239Z,25.92
2023-04-22T11:11:22.238Z,26.06
2023-04-22T11:12:22.256Z,25.88
2023-04-22T11:13:22.192Z,25.99
2023-04-22T11:14:22.190Z,25.93
2023-04-22T11:15:22.215Z,25.88
2023-04-22T11:16:22.616Z,26.01
2023-04-22T11:17:23.199Z,26.24
2023-04-22T11:18:22.223Z,26.26
2023-04-22T11:19:22.203Z,26.46
2023-04-22T11:20:22.131Z,25.73
2023-04-22T11:21:22.142Z,24.88
2023-04-22T11:22:22.100Z,24.94
2023-04-22T11:23:22.202Z,24.63
2023-04-22T11:24:22.221Z,24.61
2023-04-22T11:25:22.153Z,24.44
2023-04-22T11:26:22.109Z,23.95
2023-04-22T11:27:22.139Z,24.31
2023-04-22T11:28:22.098Z,24.58
2023-04-22T11:29:22.103Z,24.81
2023-04-22T11:30:22.107Z,25.07
2023-04-22T11:31:22.061Z,25.03
2023-04-22T11:32:22.086Z,25.19
2023-04-22T11:33:22.047Z,25.40
2023-04-22T11:34:22.107Z,25.46
2023-04-22T11:35:21.979Z,25.88
2023-04-22T11:36:22.004Z,25.98
2023-04-22T11:37:21.941Z,26.27
2023-04-22T11:38:21.976Z,26.55
2023-04-22T11:39:21.981Z,26.76
2023-04-22T11:41:24.002Z,27.00
2023-04-22T11:42:21.906Z,27.04
2023-04-22T11:43:21.964Z,27.30
2023-04-22T11:44:21.901Z,27.29
2023-04-22T11:45:21.965Z,27.47
2023-04-22T11:46:22.519Z,27.68
2023-04-22T11:47:22.889Z,27.90
2023-04-22T11:48:21.846Z,27.66
2023-04-22T11:49:21.857Z,27.35
2023-04-22T11:50:21.873Z,27.43
2023-04-22T11:51:21.836Z,27.29
2023-04-22T11:52:21.895Z,27.64
2023-04-22T11:53:21.810Z,27.93
2023-04-22T11:54:21.804Z,28.15
2023-04-22T11:55:21.837Z,28.28
2023-04-22T11:56:21.793Z,28.38
2023-04-22T11:57:21.788Z,28.52
2023-04-22T11:58:21.878Z,28.53
2023-04-22T11:59:21.800Z,28.67
2023-04-22T12:00:21.723Z,28.59
2023-04-22T12:01:21.769Z,28.03
2023-04-22T12:02:21.820Z,27.88
2023-04-22T12:03:21.756Z,27.95
2023-04-22T12:04:21.715Z,27.44
2023-04-22T12:05:21.768Z,27.11
2023-04-22T12:06:21.686Z,27.22
2023-04-22T12:07:21.684Z,27.28
2023-04-22T12:08:21.812Z,26.66
2023-04-22T12:09:21.657Z,26.39
2023-04-22T12:10:21.643Z,26.19
2023-04-22T12:11:21.640Z,25.95
2023-04-22T12:12:21.642Z,25.80
2023-04-22T12:13:21.575Z,25.88
2023-04-22T12:14:21.603Z,25.49
2023-04-22T12:15:21.620Z,24.74
2023-04-22T12:16:21.589Z,24.56
2023-04-22T12:17:21.628Z,24.85
2023-04-22T12:18:21.575Z,25.29
2023-04-22T12:19:21.532Z,25.48
2023-04-22T12:20:23.475Z,25.77
2023-04-22T12:21:21.530Z,25.71
2023-04-22T12:22:21.535Z,25.93
2023-04-22T12:23:21.480Z,25.92
2023-04-22T12:24:21.477Z,25.59
2023-04-22T12:25:21.501Z,25.67
2023-04-22T12:26:23.727Z,25.93
2023-04-22T12:27:21.459Z,25.96
2023-04-22T12:28:21.459Z,25.89
2023-04-22T12:29:21.464Z,25.61
2023-04-22T12:30:21.441Z,25.86
2023-04-22T12:31:21.524Z,25.96
2023-04-22T12:32:22.572Z,26.13
2023-04-22T12:33:21.382Z,26.31
2023-04-22T12:34:21.412Z,26.44
2023-04-22T12:35:21.413Z,26.55
2023-04-22T12:36:21.399Z,26.61
2023-04-22T12:37:21.368Z,26.52
2023-04-22T12:38:21.348Z,26.49
2023-04-22T12:39:21.369Z,26.52
2023-04-22T12:40:21.340Z,26.15
2023-04-22T12:41:21.357Z,26.22
2023-04-22T12:42:21.329Z,25.89
2023-04-22T12:43:21.367Z,25.92
2023-04-22T12:44:23.778Z,26.16
2023-04-22T12:45:21.317Z,26.10
2023-04-22T12:46:21.413Z,26.10
2023-04-22T12:47:21.286Z,26.44
2023-04-22T12:48:21.364Z,26.33
2023-04-22T12:49:21.235Z,26.01
2023-04-22T12:50:21.264Z,25.93
2023-04-22T12:51:21.257Z,25.93
2023-04-22T12:52:21.237Z,25.77
2023-04-22T12:53:21.201Z,25.98